sensor_id;sensor_type;location;lat;lon;timestamp;temperature;humidity
43842;DHT22;29495;49.970;20.842;2023-11-18T00:01:41;3.60;99.90
43842;DHT22;29495;49.970;20.842;2023-11-18T00:04:07;3.60;99.90
43842;DHT22;29495;49.970;20.842;2023-11-18T00:06:44;3.60;99.90
43842;DHT22;29495;49.970;20.842;2023-11-18T00:09:10;3.70;99.90
43842;DHT22;29495;49.970;20.842;2023-11-18T00:11:39;3.60;99.90
43842;DHT22;29495;49.970;20.842;2023-11-18T00:14:05;3.60;99.90
43842;DHT22;29495;49.970;20.842;2023-11-18T00:16:32;3.70;99.90
43842;DHT22;29495;49.970;20.842;2023-11-18T00:18:58;3.50;99.90
43842;DHT22;29495;49.970;20.842;2023-11-18T00:21:24;3.50;99.90
43842;DHT22;29495;49.970;20.842;2023-11-18T00:23:50;3.60;99.90
43842;DHT22;29495;49.970;20.842;2023-11-18T00:30:14;3.50;99.90
43842;DHT22;29495;49.970;20.842;2023-11-18T00:33:04;3.60;99.90
43842;DHT22;29495;49.970;20.842;2023-11-18T00:35:30;3.50;99.90
43842;DHT22;29495;49.970;20.842;2023-11-18T00:38:05;3.60;99.90
43842;DHT22;29495;49.970;20.842;2023-11-18T00:40:31;3.60;99.90
43842;DHT22;29495;49.970;20.842;2023-11-18T00:42:57;3.60;99.90
43842;DHT22;29495;49.970;20.842;2023-11-18T00:45:23;3.60;99.90
43842;DHT22;29495;49.970;20.842;2023-11-18T00:47:50;3.50;99.90
43842;DHT22;29495;49.970;20.842;2023-11-18T00:50:16;3.60;99.90
43842;DHT22;29495;49.970;20.842;2023-11-18T00:52:44;3.50;99.90
43842;DHT22;29495;49.970;20.842;2023-11-18T00:55:15;3.50;99.90
43842;DHT22;29495;49.970;20.842;2023-11-18T00:57:46;3.50;99.90
43842;DHT22;29495;49.970;20.842;2023-11-18T01:00:14;3.60;99.90
43842;DHT22;29495;49.970;20.842;2023-11-18T01:02:43;3.60;99.90
43842;DHT22;29495;49.970;20.842;2023-11-18T01:05:09;3.60;99.90
43842;DHT22;29495;49.970;20.842;2023-11-18T01:07:38;3.50;99.90
43842;DHT22;29495;49.970;20.842;2023-11-18T01:10:05;3.60;99.90
43842;DHT22;29495;49.970;20.842;2023-11-18T01:12:32;3.50;99.90
43842;DHT22;29495;49.970;20.842;2023-11-18T01:14:58;3.50;99.90
43842;DHT22;29495;49.970;20.842;2023-11-18T01:17:26;3.50;99.90
43842;DHT22;29495;49.970;20.842;2023-11-18T01:19:52;3.60;99.90
43842;DHT22;29495;49.970;20.842;2023-11-18T01:22:18;3.60;99.90
43842;DHT22;29495;49.970;20.842;2023-11-18T01:31:46;3.60;99.90
43842;DHT22;29495;49.970;20.842;2023-11-18T01:34:12;3.70;99.90
43842;DHT22;29495;49.970;20.842;2023-11-18T01:36:39;3.60;99.90
43842;DHT22;29495;49.970;20.842;2023-11-18T01:39:05;3.70;99.90
43842;DHT22;29495;49.970;20.842;2023-11-18T01:41:34;3.70;99.90
43842;DHT22;29495;49.970;20.842;2023-11-18T01:43:59;3.70;99.90
43842;DHT22;29495;49.970;20.842;2023-11-18T01:46:25;3.70;99.90
43842;DHT22;29495;49.970;20.842;2023-11-18T01:48:52;3.70;99.90
43842;DHT22;29495;49.970;20.842;2023-11-18T01:51:26;3.70;99.90
43842;DHT22;29495;49.970;20.842;2023-11-18T01:53:59;3.70;99.90
43842;DHT22;29495;49.970;20.842;2023-11-18T01:56:25;3.60;99.90
43842;DHT22;29495;49.970;20.842;2023-11-18T01:58:53;3.60;99.90
43842;DHT22;29495;49.970;20.842;2023-11-18T02:08:26;3.60;99.90
43842;DHT22;29495;49.970;20.842;2023-11-18T02:11:00;3.70;99.90
43842;DHT22;29495;49.970;20.842;2023-11-18T02:13:34;3.60;99.90
43842;DHT22;29495;49.970;20.842;2023-11-18T02:16:04;3.60;99.90
43842;DHT22;29495;49.970;20.842;2023-11-18T02:18:35;3.60;99.90
43842;DHT22;29495;49.970;20.842;2023-11-18T02:21:13;3.50;99.90
43842;DHT22;29495;49.970;20.842;2023-11-18T02:23:43;3.60;99.90
43842;DHT22;29495;49.970;20.842;2023-11-18T02:26:34;3.50;99.90
43842;DHT22;29495;49.970;20.842;2023-11-18T02:29:01;3.50;99.90
43842;DHT22;29495;49.970;20.842;2023-11-18T02:31:52;3.50;99.90
43842;DHT22;29495;49.970;20.842;2023-11-18T02:34:26;3.60;99.90
43842;DHT22;29495;49.970;20.842;2023-11-18T02:36:58;3.70;99.90
43842;DHT22;29495;49.970;20.842;2023-11-18T02:39:34;3.60;99.90
43842;DHT22;29495;49.970;20.842;2023-11-18T02:42:07;3.60;99.90
43842;DHT22;29495;49.970;20.842;2023-11-18T02:44:38;3.60;99.90
43842;DHT22;29495;49.970;20.842;2023-11-18T02:47:05;3.60;99.90
43842;DHT22;29495;49.970;20.842;2023-11-18T02:49:32;3.60;99.90
43842;DHT22;29495;49.970;20.842;2023-11-18T02:52:06;3.60;99.90
43842;DHT22;29495;49.970;20.842;2023-11-18T02:54:35;3.60;99.90
43842;DHT22;29495;49.970;20.842;2023-11-18T02:57:02;3.60;99.90
43842;DHT22;29495;49.970;20.842;2023-11-18T02:59:38;3.60;99.90
43842;DHT22;29495;49.970;20.842;2023-11-18T03:02:06;3.70;99.90
43842;DHT22;29495;49.970;20.842;2023-11-18T03:04:32;3.60;99.90
43842;DHT22;29495;49.970;20.842;2023-11-18T03:07:05;3.60;99.90
43842;DHT22;29495;49.970;20.842;2023-11-18T03:09:34;3.50;99.90
43842;DHT22;29495;49.970;20.842;2023-11-18T03:12:02;3.50;99.90
43842;DHT22;29495;49.970;20.842;2023-11-18T03:14:29;3.50;99.90
43842;DHT22;29495;49.970;20.842;2023-11-18T03:16:55;3.60;99.90
43842;DHT22;29495;49.970;20.842;2023-11-18T03:19:21;3.60;99.90
43842;DHT22;29495;49.970;20.842;2023-11-18T03:21:55;3.40;99.90
43842;DHT22;29495;49.970;20.842;2023-11-18T03:24:23;3.60;99.90
43842;DHT22;29495;49.970;20.842;2023-11-18T03:26:51;3.60;99.90
43842;DHT22;29495;49.970;20.842;2023-11-18T03:29:17;3.50;99.90
43842;DHT22;29495;49.970;20.842;2023-11-18T03:31:43;3.60;99.90
43842;DHT22;29495;49.970;20.842;2023-11-18T03:34:10;3.60;99.90
43842;DHT22;29495;49.970;20.842;2023-11-18T03:36:36;3.60;99.90
43842;DHT22;29495;49.970;20.842;2023-11-18T03:39:02;3.60;99.90
43842;DHT22;29495;49.970;20.842;2023-11-18T03:41:29;3.60;99.90
43842;DHT22;29495;49.970;20.842;2023-11-18T03:43:55;3.60;99.90
43842;DHT22;29495;49.970;20.842;2023-11-18T03:46:21;3.50;99.90
43842;DHT22;29495;49.970;20.842;2023-11-18T03:48:48;3.60;99.90
43842;DHT22;29495;49.970;20.842;2023-11-18T03:51:14;3.60;99.90
43842;DHT22;29495;49.970;20.842;2023-11-18T03:53:43;3.60;99.90
43842;DHT22;29495;49.970;20.842;2023-11-18T03:56:09;3.50;99.90
43842;DHT22;29495;49.970;20.842;2023-11-18T03:58:35;3.50;99.90
43842;DHT22;29495;49.970;20.842;2023-11-18T04:01:02;3.60;99.90
43842;DHT22;29495;49.970;20.842;2023-11-18T04:03:28;3.60;99.90
43842;DHT22;29495;49.970;20.842;2023-11-18T04:05:54;3.50;99.90
43842;DHT22;29495;49.970;20.842;2023-11-18T04:08:20;3.50;99.90
43842;DHT22;29495;49.970;20.842;2023-11-18T04:10:47;3.50;99.90
43842;DHT22;29495;49.970;20.842;2023-11-18T04:13:13;3.50;99.90
43842;DHT22;29495;49.970;20.842;2023-11-18T04:15:39;3.70;99.90
43842;DHT22;29495;49.970;20.842;2023-11-18T04:18:06;3.60;99.90
43842;DHT22;29495;49.970;20.842;2023-11-18T04:20:32;3.60;99.90
43842;DHT22;29495;49.970;20.842;2023-11-18T04:22:58;3.60;99.90
43842;DHT22;29495;49.970;20.842;2023-11-18T04:25:25;3.70;99.90
43842;DHT22;29495;49.970;20.842;2023-11-18T04:27:51;3.60;99.90
43842;DHT22;29495;49.970;20.842;2023-11-18T04:30:17;3.60;99.90
43842;DHT22;29495;49.970;20.842;2023-11-18T04:32:44;3.60;99.90
43842;DHT22;29495;49.970;20.842;2023-11-18T04:35:10;3.60;99.90
43842;DHT22;29495;49.970;20.842;2023-11-18T04:37:38;3.50;99.90
43842;DHT22;29495;49.970;20.842;2023-11-18T04:40:06;3.60;99.90
43842;DHT22;29495;49.970;20.842;2023-11-18T04:42:40;3.50;99.90
43842;DHT22;29495;49.970;20.842;2023-11-18T04:45:06;3.50;99.90
43842;DHT22;29495;49.970;20.842;2023-11-18T04:47:36;3.50;99.90
43842;DHT22;29495;49.970;20.842;2023-11-18T04:50:03;3.60;99.90
43842;DHT22;29495;49.970;20.842;2023-11-18T04:52:30;3.50;99.90
43842;DHT22;29495;49.970;20.842;2023-11-18T04:54:58;3.50;99.90
43842;DHT22;29495;49.970;20.842;2023-11-18T04:57:26;3.50;99.90
43842;DHT22;29495;49.970;20.842;2023-11-18T04:59:52;3.50;99.90
43842;DHT22;29495;49.970;20.842;2023-11-18T05:02:18;3.60;99.90
43842;DHT22;29495;49.970;20.842;2023-11-18T05:04:44;3.60;99.90
43842;DHT22;29495;49.970;20.842;2023-11-18T05:07:10;3.50;99.90
43842;DHT22;29495;49.970;20.842;2023-11-18T05:09:36;3.50;99.90
43842;DHT22;29495;49.970;20.842;2023-11-18T05:12:03;3.50;99.90
43842;DHT22;29495;49.970;20.842;2023-11-18T05:14:29;3.50;99.90
43842;DHT22;29495;49.970;20.842;2023-11-18T05:16:55;3.50;99.90
43842;DHT22;29495;49.970;20.842;2023-11-18T05:19:26;3.60;99.90
43842;DHT22;29495;49.970;20.842;2023-11-18T05:21:55;3.50;99.90
43842;DHT22;29495;49.970;20.842;2023-11-18T05:24:22;3.60;99.90
43842;DHT22;29495;49.970;20.842;2023-11-18T05:26:48;3.70;99.90
43842;DHT22;29495;49.970;20.842;2023-11-18T05:29:15;3.60;99.90
43842;DHT22;29495;49.970;20.842;2023-11-18T05:31:42;3.60;99.90
43842;DHT22;29495;49.970;20.842;2023-11-18T05:34:10;3.60;99.90
43842;DHT22;29495;49.970;20.842;2023-11-18T05:36:36;3.60;99.90
43842;DHT22;29495;49.970;20.842;2023-11-18T05:39:03;3.70;99.90
43842;DHT22;29495;49.970;20.842;2023-11-18T05:41:30;3.70;99.90
43842;DHT22;29495;49.970;20.842;2023-11-18T05:44:00;3.80;99.90
43842;DHT22;29495;49.970;20.842;2023-11-18T05:46:27;3.70;99.90
43842;DHT22;29495;49.970;20.842;2023-11-18T05:48:56;3.80;99.90
43842;DHT22;29495;49.970;20.842;2023-11-18T05:51:23;3.80;99.90
43842;DHT22;29495;49.970;20.842;2023-11-18T05:53:50;3.70;99.90
43842;DHT22;29495;49.970;20.842;2023-11-18T05:56:18;3.80;99.90
43842;DHT22;29495;49.970;20.842;2023-11-18T05:58:45;3.80;99.90
43842;DHT22;29495;49.970;20.842;2023-11-18T06:01:12;3.80;99.90
43842;DHT22;29495;49.970;20.842;2023-11-18T06:03:39;3.80;99.90
43842;DHT22;29495;49.970;20.842;2023-11-18T06:06:07;3.70;99.90
43842;DHT22;29495;49.970;20.842;2023-11-18T06:08:36;3.80;99.90
43842;DHT22;29495;49.970;20.842;2023-11-18T06:11:04;3.80;99.90
43842;DHT22;29495;49.970;20.842;2023-11-18T06:13:43;3.90;99.90
43842;DHT22;29495;49.970;20.842;2023-11-18T06:16:14;3.70;99.90
43842;DHT22;29495;49.970;20.842;2023-11-18T06:18:44;3.70;99.90
43842;DHT22;29495;49.970;20.842;2023-11-18T06:21:15;3.60;99.90
43842;DHT22;29495;49.970;20.842;2023-11-18T06:23:42;3.70;99.90
43842;DHT22;29495;49.970;20.842;2023-11-18T06:26:08;3.60;99.90
43842;DHT22;29495;49.970;20.842;2023-11-18T06:28:39;3.70;99.90
43842;DHT22;29495;49.970;20.842;2023-11-18T06:31:05;3.70;99.90
43842;DHT22;29495;49.970;20.842;2023-11-18T06:33:41;3.70;99.90
43842;DHT22;29495;49.970;20.842;2023-11-18T06:38:50;3.70;99.90
43842;DHT22;29495;49.970;20.842;2023-11-18T06:41:21;3.80;99.90
43842;DHT22;29495;49.970;20.842;2023-11-18T06:43:51;3.70;99.90
43842;DHT22;29495;49.970;20.842;2023-11-18T06:46:24;3.70;99.90
43842;DHT22;29495;49.970;20.842;2023-11-18T06:48:54;3.70;99.90
43842;DHT22;29495;49.970;20.842;2023-11-18T06:51:21;3.70;99.90
43842;DHT22;29495;49.970;20.842;2023-11-18T06:53:51;3.80;99.90
43842;DHT22;29495;49.970;20.842;2023-11-18T06:56:21;3.70;99.90
43842;DHT22;29495;49.970;20.842;2023-11-18T06:58:47;3.70;99.90
43842;DHT22;29495;49.970;20.842;2023-11-18T07:01:14;3.80;99.90
43842;DHT22;29495;49.970;20.842;2023-11-18T07:03:48;3.70;99.90
43842;DHT22;29495;49.970;20.842;2023-11-18T07:06:18;3.80;99.90
43842;DHT22;29495;49.970;20.842;2023-11-18T07:08:53;3.80;99.90
43842;DHT22;29495;49.970;20.842;2023-11-18T07:11:22;3.80;99.90
43842;DHT22;29495;49.970;20.842;2023-11-18T07:13:49;3.90;99.90
43842;DHT22;29495;49.970;20.842;2023-11-18T07:16:15;3.90;99.90
43842;DHT22;29495;49.970;20.842;2023-11-18T07:23:19;4.00;99.90
43842;DHT22;29495;49.970;20.842;2023-11-18T07:26:19;4.00;99.90
43842;DHT22;29495;49.970;20.842;2023-11-18T07:28:47;4.10;99.90
43842;DHT22;29495;49.970;20.842;2023-11-18T07:31:13;4.10;99.90
43842;DHT22;29495;49.970;20.842;2023-11-18T07:33:44;4.20;99.90
43842;DHT22;29495;49.970;20.842;2023-11-18T07:36:16;4.20;99.90
43842;DHT22;29495;49.970;20.842;2023-11-18T07:38:42;4.20;99.90
43842;DHT22;29495;49.970;20.842;2023-11-18T07:41:08;4.30;99.90
43842;DHT22;29495;49.970;20.842;2023-11-18T07:43:44;4.50;99.90
43842;DHT22;29495;49.970;20.842;2023-11-18T07:46:26;4.50;99.90
43842;DHT22;29495;49.970;20.842;2023-11-18T07:48:54;4.40;99.90
43842;DHT22;29495;49.970;20.842;2023-11-18T07:51:21;4.40;99.90
43842;DHT22;29495;49.970;20.842;2023-11-18T07:53:51;4.40;99.90
43842;DHT22;29495;49.970;20.842;2023-11-18T07:56:16;4.30;99.90
43842;DHT22;29495;49.970;20.842;2023-11-18T07:58:43;4.30;99.90
43842;DHT22;29495;49.970;20.842;2023-11-18T08:01:13;4.30;99.90
43842;DHT22;29495;49.970;20.842;2023-11-18T08:03:39;4.30;99.90
43842;DHT22;29495;49.970;20.842;2023-11-18T08:06:10;4.30;99.90
43842;DHT22;29495;49.970;20.842;2023-11-18T08:08:38;4.40;99.90
43842;DHT22;29495;49.970;20.842;2023-11-18T08:11:05;4.30;99.90
43842;DHT22;29495;49.970;20.842;2023-11-18T08:13:31;4.40;99.90
43842;DHT22;29495;49.970;20.842;2023-11-18T08:15:58;4.50;99.90
43842;DHT22;29495;49.970;20.842;2023-11-18T08:18:24;4.50;99.90
43842;DHT22;29495;49.970;20.842;2023-11-18T08:20:50;4.60;99.90
43842;DHT22;29495;49.970;20.842;2023-11-18T08:27:21;4.60;99.90
43842;DHT22;29495;49.970;20.842;2023-11-18T08:29:48;4.50;99.90
43842;DHT22;29495;49.970;20.842;2023-11-18T08:32:25;4.50;99.90
43842;DHT22;29495;49.970;20.842;2023-11-18T08:34:59;4.70;99.90
43842;DHT22;29495;49.970;20.842;2023-11-18T08:37:43;4.70;99.90
43842;DHT22;29495;49.970;20.842;2023-11-18T08:40:19;4.60;99.90
43842;DHT22;29495;49.970;20.842;2023-11-18T08:42:50;4.70;99.90
43842;DHT22;29495;49.970;20.842;2023-11-18T08:45:21;4.80;99.90
43842;DHT22;29495;49.970;20.842;2023-11-18T08:47:48;4.80;99.90
43842;DHT22;29495;49.970;20.842;2023-11-18T08:50:17;4.80;99.90
43842;DHT22;29495;49.970;20.842;2023-11-18T08:52:44;4.80;99.90
43842;DHT22;29495;49.970;20.842;2023-11-18T08:55:14;4.80;99.90
43842;DHT22;29495;49.970;20.842;2023-11-18T08:57:47;4.90;99.90
43842;DHT22;29495;49.970;20.842;2023-11-18T09:00:25;4.90;99.90
43842;DHT22;29495;49.970;20.842;2023-11-18T09:07:34;4.90;99.90
43842;DHT22;29495;49.970;20.842;2023-11-18T09:10:03;4.90;99.90
43842;DHT22;29495;49.970;20.842;2023-11-18T09:12:29;4.80;99.90
43842;DHT22;29495;49.970;20.842;2023-11-18T09:14:57;4.90;99.90
43842;DHT22;29495;49.970;20.842;2023-11-18T09:17:25;4.80;99.90
43842;DHT22;29495;49.970;20.842;2023-11-18T09:20:25;4.70;99.90
43842;DHT22;29495;49.970;20.842;2023-11-18T09:22:55;4.70;99.90
43842;DHT22;29495;49.970;20.842;2023-11-18T09:25:21;4.80;99.90
43842;DHT22;29495;49.970;20.842;2023-11-18T09:27:48;4.80;99.90
43842;DHT22;29495;49.970;20.842;2023-11-18T09:30:13;4.60;99.90
43842;DHT22;29495;49.970;20.842;2023-11-18T09:32:40;4.40;99.90
43842;DHT22;29495;49.970;20.842;2023-11-18T09:35:08;4.10;99.90
43842;DHT22;29495;49.970;20.842;2023-11-18T09:37:35;4.00;99.90
43842;DHT22;29495;49.970;20.842;2023-11-18T09:40:08;3.80;99.90
43842;DHT22;29495;49.970;20.842;2023-11-18T09:42:37;3.80;99.90
43842;DHT22;29495;49.970;20.842;2023-11-18T09:45:05;3.70;99.90
43842;DHT22;29495;49.970;20.842;2023-11-18T09:47:36;3.50;99.90
43842;DHT22;29495;49.970;20.842;2023-11-18T09:50:08;3.50;99.90
43842;DHT22;29495;49.970;20.842;2023-11-18T09:52:42;3.40;99.90
43842;DHT22;29495;49.970;20.842;2023-11-18T09:55:45;3.20;99.90
43842;DHT22;29495;49.970;20.842;2023-11-18T09:58:15;3.10;99.90
43842;DHT22;29495;49.970;20.842;2023-11-18T10:00:47;3.00;99.90
43842;DHT22;29495;49.970;20.842;2023-11-18T10:03:16;3.00;99.90
43842;DHT22;29495;49.970;20.842;2023-11-18T10:05:43;3.00;99.90
43842;DHT22;29495;49.970;20.842;2023-11-18T10:08:10;3.00;99.90
43842;DHT22;29495;49.970;20.842;2023-11-18T10:14:27;3.10;99.90
43842;DHT22;29495;49.970;20.842;2023-11-18T10:16:55;3.00;99.90
43842;DHT22;29495;49.970;20.842;2023-11-18T10:19:23;3.10;99.90
43842;DHT22;29495;49.970;20.842;2023-11-18T10:22:03;3.10;99.90
43842;DHT22;29495;49.970;20.842;2023-11-18T10:25:04;3.20;99.90
43842;DHT22;29495;49.970;20.842;2023-11-18T10:44:55;3.20;99.90
43842;DHT22;29495;49.970;20.842;2023-11-18T10:47:26;3.30;99.90
43842;DHT22;29495;49.970;20.842;2023-11-18T11:15:13;4.00;99.90
43842;DHT22;29495;49.970;20.842;2023-11-18T11:17:51;4.20;99.90
43842;DHT22;29495;49.970;20.842;2023-11-18T11:20:37;4.30;99.90
43842;DHT22;29495;49.970;20.842;2023-11-18T11:26:41;4.20;99.90
43842;DHT22;29495;49.970;20.842;2023-11-18T11:31:51;4.20;99.90
43842;DHT22;29495;49.970;20.842;2023-11-18T11:34:24;4.20;99.90
43842;DHT22;29495;49.970;20.842;2023-11-18T11:36:53;4.30;99.90
43842;DHT22;29495;49.970;20.842;2023-11-18T11:39:20;4.20;99.90
43842;DHT22;29495;49.970;20.842;2023-11-18T11:41:55;4.00;99.90
43842;DHT22;29495;49.970;20.842;2023-11-18T11:44:25;4.00;99.90
43842;DHT22;29495;49.970;20.842;2023-11-18T11:47:00;4.00;99.90
43842;DHT22;29495;49.970;20.842;2023-11-18T11:49:38;4.00;99.90
43842;DHT22;29495;49.970;20.842;2023-11-18T11:52:18;4.00;99.90
43842;DHT22;29495;49.970;20.842;2023-11-18T11:54:55;3.90;99.90
43842;DHT22;29495;49.970;20.842;2023-11-18T11:57:24;3.90;99.90
43842;DHT22;29495;49.970;20.842;2023-11-18T12:02:24;3.90;99.90
43842;DHT22;29495;49.970;20.842;2023-11-18T12:04:54;3.80;99.90
43842;DHT22;29495;49.970;20.842;2023-11-18T12:07:21;3.70;99.90
43842;DHT22;29495;49.970;20.842;2023-11-18T12:09:59;3.40;99.90
43842;DHT22;29495;49.970;20.842;2023-11-18T12:12:27;3.30;99.90
43842;DHT22;29495;49.970;20.842;2023-11-18T12:14:55;3.30;99.90
43842;DHT22;29495;49.970;20.842;2023-11-18T13:22:58;3.20;99.90
43842;DHT22;29495;49.970;20.842;2023-11-18T13:25:27;3.20;99.90
43842;DHT22;29495;49.970;20.842;2023-11-18T13:27:52;3.30;99.90
43842;DHT22;29495;49.970;20.842;2023-11-18T13:30:20;3.30;99.90
43842;DHT22;29495;49.970;20.842;2023-11-18T13:32:46;3.40;99.90
43842;DHT22;29495;49.970;20.842;2023-11-18T13:35:16;3.30;99.90
43842;DHT22;29495;49.970;20.842;2023-11-18T13:37:47;3.30;99.90
43842;DHT22;29495;49.970;20.842;2023-11-18T13:40:15;3.30;99.90
43842;DHT22;29495;49.970;20.842;2023-11-18T13:42:44;3.30;99.90
43842;DHT22;29495;49.970;20.842;2023-11-18T13:45:23;3.30;99.90
43842;DHT22;29495;49.970;20.842;2023-11-18T13:47:52;3.20;99.90
43842;DHT22;29495;49.970;20.842;2023-11-18T13:50:18;3.30;99.90
43842;DHT22;29495;49.970;20.842;2023-11-18T13:52:46;3.20;99.90
43842;DHT22;29495;49.970;20.842;2023-11-18T13:55:15;3.30;99.90
43842;DHT22;29495;49.970;20.842;2023-11-18T13:57:57;3.20;99.90
43842;DHT22;29495;49.970;20.842;2023-11-18T14:00:25;3.30;99.90
43842;DHT22;29495;49.970;20.842;2023-11-18T14:02:57;3.30;99.90
43842;DHT22;29495;49.970;20.842;2023-11-18T14:05:24;3.20;99.90
43842;DHT22;29495;49.970;20.842;2023-11-18T14:07:54;3.20;99.90
43842;DHT22;29495;49.970;20.842;2023-11-18T14:10:22;3.20;99.90
43842;DHT22;29495;49.970;20.842;2023-11-18T14:13:06;3.20;99.90
43842;DHT22;29495;49.970;20.842;2023-11-18T14:15:35;3.20;99.90
43842;DHT22;29495;49.970;20.842;2023-11-18T14:18:02;3.20;99.90
43842;DHT22;29495;49.970;20.842;2023-11-18T14:20:28;3.20;99.90
43842;DHT22;29495;49.970;20.842;2023-11-18T14:22:57;3.20;99.90
43842;DHT22;29495;49.970;20.842;2023-11-18T14:25:27;3.10;99.90
43842;DHT22;29495;49.970;20.842;2023-11-18T14:27:53;3.20;99.90
43842;DHT22;29495;49.970;20.842;2023-11-18T14:30:20;3.10;99.90
43842;DHT22;29495;49.970;20.842;2023-11-18T14:32:46;3.00;99.90
43842;DHT22;29495;49.970;20.842;2023-11-18T14:35:15;3.10;99.90
43842;DHT22;29495;49.970;20.842;2023-11-18T14:37:46;3.10;99.90
43842;DHT22;29495;49.970;20.842;2023-11-18T14:40:13;3.00;99.90
43842;DHT22;29495;49.970;20.842;2023-11-18T14:42:43;3.10;99.90
43842;DHT22;29495;49.970;20.842;2023-11-18T14:45:14;3.00;99.90
43842;DHT22;29495;49.970;20.842;2023-11-18T14:47:40;3.00;99.90
43842;DHT22;29495;49.970;20.842;2023-11-18T14:50:07;2.90;99.90
43842;DHT22;29495;49.970;20.842;2023-11-18T14:52:44;2.90;99.90
43842;DHT22;29495;49.970;20.842;2023-11-18T15:57:57;2.90;99.90
43842;DHT22;29495;49.970;20.842;2023-11-18T16:00:26;3.00;99.90
43842;DHT22;29495;49.970;20.842;2023-11-18T16:02:58;2.90;99.90
43842;DHT22;29495;49.970;20.842;2023-11-18T16:05:27;2.70;99.90
43842;DHT22;29495;49.970;20.842;2023-11-18T16:07:54;2.80;99.90
43842;DHT22;29495;49.970;20.842;2023-11-18T16:10:24;2.70;99.90
43842;DHT22;29495;49.970;20.842;2023-11-18T16:12:52;2.90;99.90
43842;DHT22;29495;49.970;20.842;2023-11-18T16:15:22;2.80;99.90
43842;DHT22;29495;49.970;20.842;2023-11-18T16:17:58;2.80;99.90
43842;DHT22;29495;49.970;20.842;2023-11-18T16:20:29;2.80;99.90
43842;DHT22;29495;49.970;20.842;2023-11-18T16:22:58;2.80;99.90
43842;DHT22;29495;49.970;20.842;2023-11-18T16:25:28;3.00;99.90
43842;DHT22;29495;49.970;20.842;2023-11-18T16:28:00;2.90;99.90
43842;DHT22;29495;49.970;20.842;2023-11-18T16:30:28;2.90;99.90
43842;DHT22;29495;49.970;20.842;2023-11-18T16:32:59;2.90;99.90
43842;DHT22;29495;49.970;20.842;2023-11-18T16:35:26;2.70;99.90
43842;DHT22;29495;49.970;20.842;2023-11-18T16:37:53;2.80;99.90
43842;DHT22;29495;49.970;20.842;2023-11-18T16:40:20;2.90;99.90
43842;DHT22;29495;49.970;20.842;2023-11-18T16:42:49;2.90;99.90
43842;DHT22;29495;49.970;20.842;2023-11-18T16:45:15;2.90;99.90
43842;DHT22;29495;49.970;20.842;2023-11-18T16:47:42;2.90;99.90
43842;DHT22;29495;49.970;20.842;2023-11-18T16:50:10;2.70;99.90
43842;DHT22;29495;49.970;20.842;2023-11-18T16:52:39;2.80;99.90
43842;DHT22;29495;49.970;20.842;2023-11-18T16:55:06;2.80;99.90
43842;DHT22;29495;49.970;20.842;2023-11-18T16:57:34;2.80;99.90
43842;DHT22;29495;49.970;20.842;2023-11-18T17:00:07;2.80;99.90
43842;DHT22;29495;49.970;20.842;2023-11-18T17:02:49;2.70;99.90
43842;DHT22;29495;49.970;20.842;2023-11-18T17:05:20;2.80;99.90
43842;DHT22;29495;49.970;20.842;2023-11-18T17:08:11;2.80;99.90
43842;DHT22;29495;49.970;20.842;2023-11-18T17:10:37;2.70;99.90
43842;DHT22;29495;49.970;20.842;2023-11-18T17:13:03;2.70;99.90
43842;DHT22;29495;49.970;20.842;2023-11-18T17:15:30;2.70;99.90
43842;DHT22;29495;49.970;20.842;2023-11-18T17:17:57;2.70;99.90
43842;DHT22;29495;49.970;20.842;2023-11-18T17:20:27;2.70;99.90
43842;DHT22;29495;49.970;20.842;2023-11-18T17:22:57;2.70;99.90
43842;DHT22;29495;49.970;20.842;2023-11-18T17:25:29;2.80;99.90
43842;DHT22;29495;49.970;20.842;2023-11-18T17:27:55;2.60;99.90
43842;DHT22;29495;49.970;20.842;2023-11-18T17:30:22;2.70;99.90
43842;DHT22;29495;49.970;20.842;2023-11-18T17:32:49;2.70;99.90
43842;DHT22;29495;49.970;20.842;2023-11-18T17:35:18;2.80;99.90
43842;DHT22;29495;49.970;20.842;2023-11-18T17:37:46;2.70;99.90
43842;DHT22;29495;49.970;20.842;2023-11-18T17:40:14;2.70;99.90
43842;DHT22;29495;49.970;20.842;2023-11-18T17:42:41;2.70;99.90
43842;DHT22;29495;49.970;20.842;2023-11-18T17:45:08;2.70;99.90
43842;DHT22;29495;49.970;20.842;2023-11-18T17:47:34;2.90;99.90
43842;DHT22;29495;49.970;20.842;2023-11-18T17:50:03;2.90;99.90
43842;DHT22;29495;49.970;20.842;2023-11-18T17:52:39;2.80;99.90
43842;DHT22;29495;49.970;20.842;2023-11-18T17:55:18;2.80;99.90
43842;DHT22;29495;49.970;20.842;2023-11-18T17:57:44;2.90;99.90
43842;DHT22;29495;49.970;20.842;2023-11-18T18:00:11;2.90;99.90
43842;DHT22;29495;49.970;20.842;2023-11-18T18:02:39;2.90;99.90
43842;DHT22;29495;49.970;20.842;2023-11-18T18:05:07;2.90;99.90
43842;DHT22;29495;49.970;20.842;2023-11-18T18:07:33;2.80;99.90
43842;DHT22;29495;49.970;20.842;2023-11-18T18:09:59;2.80;99.90
43842;DHT22;29495;49.970;20.842;2023-11-18T18:12:26;2.80;99.90
43842;DHT22;29495;49.970;20.842;2023-11-18T18:14:53;2.80;99.90
43842;DHT22;29495;49.970;20.842;2023-11-18T18:20:41;2.80;99.90
43842;DHT22;29495;49.970;20.842;2023-11-18T18:23:16;2.70;99.90
43842;DHT22;29495;49.970;20.842;2023-11-18T18:25:46;2.80;99.90
43842;DHT22;29495;49.970;20.842;2023-11-18T18:28:15;2.80;99.90
43842;DHT22;29495;49.970;20.842;2023-11-18T18:30:42;2.70;99.90
43842;DHT22;29495;49.970;20.842;2023-11-18T18:33:08;2.70;99.90
43842;DHT22;29495;49.970;20.842;2023-11-18T18:36:38;2.70;99.90
43842;DHT22;29495;49.970;20.842;2023-11-18T18:40:01;2.80;99.90
43842;DHT22;29495;49.970;20.842;2023-11-18T18:48:06;2.70;99.90
43842;DHT22;29495;49.970;20.842;2023-11-18T18:50:44;2.70;99.90
43842;DHT22;29495;49.970;20.842;2023-11-18T18:53:11;2.80;99.90
43842;DHT22;29495;49.970;20.842;2023-11-18T18:55:37;2.80;99.90
43842;DHT22;29495;49.970;20.842;2023-11-18T18:58:04;2.80;99.90
43842;DHT22;29495;49.970;20.842;2023-11-18T19:00:31;2.80;99.90
43842;DHT22;29495;49.970;20.842;2023-11-18T19:02:57;2.80;99.90
43842;DHT22;29495;49.970;20.842;2023-11-18T19:05:23;2.80;99.90
43842;DHT22;29495;49.970;20.842;2023-11-18T19:07:50;2.80;99.90
43842;DHT22;29495;49.970;20.842;2023-11-18T19:10:22;2.80;99.90
43842;DHT22;29495;49.970;20.842;2023-11-18T19:12:48;2.70;99.90
43842;DHT22;29495;49.970;20.842;2023-11-18T19:15:15;2.70;99.90
43842;DHT22;29495;49.970;20.842;2023-11-18T19:17:45;2.60;99.90
43842;DHT22;29495;49.970;20.842;2023-11-18T19:20:12;2.70;99.90
43842;DHT22;29495;49.970;20.842;2023-11-18T19:22:42;2.50;99.90
43842;DHT22;29495;49.970;20.842;2023-11-18T19:25:08;2.60;99.90
43842;DHT22;29495;49.970;20.842;2023-11-18T19:27:34;2.60;99.90
43842;DHT22;29495;49.970;20.842;2023-11-18T19:30:00;2.50;99.90
43842;DHT22;29495;49.970;20.842;2023-11-18T19:32:31;2.50;99.90